Tiempo atmosférico en la estación meteorológica de Láujar De Andarax, Almería (1510 m.)



Fecha
DESCASC
Temp. máxima en grados centígrados (hora)
DESCASC
Temp. mínima en grados centígrados (hora)
DESCASC
Temp. media en grados centígrados
DESCASC
Racha de viento máxima en m/sg (hora)
DESCASC
Velocidad máxima media en intervalos de 10 minutos(hora)
DESCASC
Precipitaciones diarias en mm
DESCASC
Precipitaciones de 00:00 a 06:00 en mm
DESCASC
Precipitaciones de 06:00 a 12:00 en mm
DESCASC
Precipitaciones de 12:00 a 18:00 en mm
DESCASC
Precipitaciones de 18:00 a 24:00 en mm
DESCASC
24-09-2020 26.3 (17:00) 16.1 (01:20) 21.2 19.72 (18:20) 12.78 (21:50) 0 0 0 0 0
23-09-2020 24.4 (16:50) 14.7 (00:00) 19.5 13.61 (13:20) 9.72 (13:00) 0 0 0 0 0
22-09-2020 22.5 (17:10) 14.1 (00:00) 18.3 9.44 (15:10) 6.39 (17:20) 0 0 0 0 0
21-09-2020 23.4 (17:30) 13.4 (00:00) 18.4 9.17 (14:10) 5.56 (14:10) 0 0 0 0 0
20-09-2020 22.2 (17:50) 12.4 (00:00) 17.3 9.17 (15:30) 5.83 (14:40) 0 0 0 0 0
19-09-2020 21.7 (17:40) 10.4 (00:00) 16.1 15.56 (01:20) 11.94 (01:10) 0 0 0 0 0
18-09-2020 17.2 (18:10) 11 (00:00) 14.1 16.11 (05:20) 11.39 (05:20) 28 16.6 8.4 3 0
17-09-2020 24.5 (15:30) 13.7 (00:00) 19.1 11.11 (15:00) 7.22 (15:30) 0.2 0 0.2 0 0
16-09-2020 25.6 (15:20) 15.7 (00:00) 20.7 8.89 (15:20) 5.83 (15:20) 0 0 0 0 0
15-09-2020 25.6 (17:50) 15.1 (00:00) 20.4 8.61 (05:10) 5.83 (05:00) 0.2 0.2 0 0 0
14-09-2020 27 (16:10) 15.6 (00:00) 21.3 8.89 (15:40) 5.83 (20:40) 0 0 0 0 0
13-09-2020 23.3 (12:10) 16.5 (00:00) 19.9 9.17 (12:40) 4.17 (23:30) 0 0 0 0 0
12-09-2020 26 (15:20) 17 (00:00) 21.5 8.89 (13:30) 3.89 (12:40) 0 0 0 0 0
11-09-2020 25.4 (15:20) 15.3 (00:00) 20.3 10.28 (13:50) 6.67 (16:20) 0 0 0 0 0
10-09-2020 25.2 (14:30) 13.2 (00:00) 19.2 11.39 (15:20) 7.22 (15:00) 0 0 0 0 0
09-09-2020 23.1 (16:50) 10.6 (00:00) 16.9 9.17 (13:50) 5.83 (15:20) 0 0 0 0 0
08-09-2020 16.9 (17:50) 10.9 (00:00) 13.9 6.67 (19:00) 3.61 (00:20) 0 0 0 0 0
07-09-2020 27.5 (16:30) 13.9 (23:59) 20.7 10 (11:40) 6.39 (08:50) 0 0 0 0 0
06-09-2020 24.4 (16:20) 14.3 (00:00) 19.3 7.22 (14:10) 4.17 (15:20) 0 0 0 0 0
05-09-2020 24.6 (16:20) 15.2 (00:00) 19.9 7.5 (16:20) 4.72 (16:20) 0 0 0 0 0
04-09-2020 25.1 (15:40) 12.1 (00:00) 18.6 8.61 (14:10) 5 (15:40) 0 0 0 0 0
03-09-2020 23.4 (15:00) 12.7 (00:00) 18 8.89 (18:50) 3.89 (17:20) 0 0 0 0 0
02-09-2020 21 (15:50) 12.9 (00:00) 16.9 8.61 (15:50) 5.83 (13:40) 3.8 0 0 3.8 0
01-09-2020 21.1 (14:20) 11.8 (00:00) 16.5 9.72 (17:20) 7.5 (17:20) 0 0 0 0 0
31-08-2020 23.6 (15:10) 10.4 (00:00) 17 10 (15:30) 6.94 (15:40) 0 0 0 0 0
30-08-2020 23.1 (16:30) 11.8 (00:00) 17.5 11.94 (17:40) 7.22 (18:00) 0 0 0 0 0
29-08-2020 26.8 (16:00) 15.2 (00:00) 21 17.22 (21:00) 11.94 (18:20) 0 0 0 0 0
28-08-2020 30.2 (16:20) 20.4 (00:00) 25.3 12.5 (15:00) 7.78 (14:50) 0 0 0 0 0

Gráficas

Temp. máximas Temp. mínimas Temp. medias Precipitaciones Rachas de viento máximas Velocidades máximas media en intervalos de 10 minutos

Datos horarios

Fecha y hora oficial Temperatura (ºC) Velocidad del viento (km/h) Dirección del viento Racha (km/h) Dirección de racha Precipitación (mm) Presión (hPa) Tendencia (hPa) Humedad (%)
2020-09-26 23:00:00 13.7 6 Este 21 Sudeste 0 -- -- 40
2020-09-26 22:00:00 14.4 8 Noroeste 52 Nordeste 0 -- -- 37
2020-09-26 21:00:00 13.9 32 Nordeste 49 Nordeste 0 -- -- 36
2020-09-26 20:00:00 14.3 12 Nordeste 31 Nordeste 0 -- -- 35
2020-09-26 19:00:00 16 12 Norte 25 Noroeste 0 -- -- 52
2020-09-26 18:00:00 18.8 20 Noroeste 31 Noroeste 0 -- -- 45
2020-09-26 17:00:00 18.3 23 Noroeste 35 Noroeste 0 -- -- 47
2020-09-26 16:00:00 18.3 26 Noroeste 42 Noroeste 0 -- -- 46
2020-09-26 15:00:00 18.6 25 Noroeste 42 Noroeste 0 -- -- 45
2020-09-26 14:00:00 17.7 27 Noroeste 40 Noroeste 0 -- -- 48
2020-09-26 13:00:00 17 27 Noroeste 39 Noroeste 0 -- -- 49
2020-09-26 12:00:00 16 22 Norte 33 Noroeste 0 -- -- 54
2020-09-26 11:00:00 13.9 21 Noroeste 33 Noroeste 0 -- -- 62
2020-09-26 10:00:00 12.1 21 Norte 32 Noroeste 0 -- -- 68
2020-09-26 09:00:00 9.9 23 Norte 31 Norte 0 -- -- 67
2020-09-26 08:00:00 9.1 23 Norte 32 Norte 0 -- -- 77
2020-09-26 07:00:00 9.5 15 Norte 30 Norte 0 -- -- 66
2020-09-26 06:00:00 10 21 Norte 27 Norte 0 -- -- 68
2020-09-26 05:00:00 9.8 8 Norte 12 Noroeste 0 -- -- 71
2020-09-26 04:00:00 11.7 4 Noroeste 12 Norte 0 -- -- 39
2020-09-26 03:00:00 13.7 5 Nordeste 31 Norte 0 -- -- 31
2020-09-26 02:00:00 13.6 18 Norte 34 Norte 0 -- -- 32
2020-09-26 01:00:00 16 15 Norte 30 Norte 0 -- -- 24
2020-09-26 00:00:00 15.7 15 Norte 24 Norte 0 -- -- 23
2020-09-25 23:00:00 18 8 Sur 54 Nordeste 0 -- -- 14
2020-09-25 22:00:00 18.8 46 Nordeste 63 Nordeste 0 -- -- 11
2020-09-25 21:00:00 18.1 44 Nordeste 58 Nordeste 0 -- -- 13
2020-09-25 20:00:00 18 17 Nordeste 40 Nordeste 0 -- -- 16
2020-09-25 19:00:00 19.7 30 Nordeste 42 Nordeste 0 -- -- 17
2020-09-25 18:00:00 22.1 26 Nordeste 52 Nordeste 0 -- -- 12
2020-09-25 17:00:00 21.9 30 Nordeste 52 Nordeste 0 -- -- 12
2020-09-25 16:00:00 21 28 Nordeste 69 Norte 0 -- -- 14
2020-09-25 15:00:00 21.9 45 Norte 71 Norte 0 -- -- 12
2020-09-25 14:00:00 22.7 29 Norte 66 Nordeste 0 -- -- 9
2020-09-25 13:00:00 21.7 44 Nordeste 72 Norte 0 -- -- 7
2020-09-25 12:00:00 21 40 Norte 80 Norte 0 -- -- 12
2020-09-25 11:00:00 19.9 42 Norte 74 Norte 0 -- -- 25
2020-09-25 10:00:00 19.8 44 Norte 89 Norte 0 -- -- 30
2020-09-25 09:00:00 18.8 42 Norte 76 Norte 0 -- -- 35
2020-09-25 08:00:00 18.6 44 Norte 80 Norte 0 -- -- 35
2020-09-25 07:00:00 19 48 Norte 80 Norte 0 -- -- 34
2020-09-25 06:00:00 20.1 48 Norte 75 Norte 0 -- -- 31
2020-09-25 05:00:00 20.3 42 Norte 69 Norte 0 -- -- 30
2020-09-25 04:00:00 20.5 41 Norte 68 Norte 0 -- -- 30
2020-09-25 03:00:00 20.8 39 Norte 58 Norte 0 -- -- 30
2020-09-25 02:00:00 18.1 15 Noroeste 32 Noroeste 0 -- -- 42
2020-09-25 01:00:00 18.8 10 Noroeste 23 Noroeste 0 -- -- 40
2020-09-25 00:00:00 19.1 15 Noroeste 56 Norte 0 -- -- 39
2020-09-24 23:00:00 21.1 42 Norte 66 Norte 0 -- -- 30
2020-09-24 22:00:00 20.3 43 Norte 64 Norte 0 -- -- 33
2020-09-24 21:00:00 20.3 40 Norte 69 Nordeste 0 -- -- 32
2020-09-24 20:00:00 20.1 41 Nordeste 67 Norte 0 -- -- 33
2020-09-24 19:00:00 20.9 38 Nordeste 71 Norte 0 -- -- 34
2020-09-24 18:00:00 22.3 33 Nordeste 54 Norte 0 -- -- 34
2020-09-24 17:00:00 26.3 22 Norte 39 Noroeste 0 -- -- 27
2020-09-24 16:00:00 24.1 22 Noroeste 41 Norte 0 -- -- 33
2020-09-24 15:00:00 25 25 Noroeste 45 Noroeste 0 -- -- 30
2020-09-24 14:00:00 24 22 Noroeste 39 Norte 0 -- -- 32
2020-09-24 13:00:00 23.6 23 Noroeste 38 Norte 0 -- -- 32
2020-09-24 12:00:00 22.2 20 Noroeste 31 Noroeste 0 -- -- 34
2020-09-24 11:00:00 20.8 2 Sudoeste 13 Noroeste 0 -- -- 37
2020-09-24 10:00:00 18.3 9 Oeste 13 Oeste 0 -- -- 41
2020-09-24 09:00:00 17.8 4 Norte 6 Norte 0 -- -- 37
2020-09-24 08:00:00 17.6 3 Nordeste 7 Noroeste 0 -- -- 34
2020-09-24 07:00:00 17.7 4 Este 10 Sudeste 0 -- -- 33
2020-09-24 06:00:00 17.1 6 Este 9 Este 0 -- -- 36
2020-09-24 05:00:00 16.7 5 Este 9 Oeste 0 -- -- 39
2020-09-24 04:00:00 17.9 7 Noroeste 19 Noroeste 0 -- -- 35
2020-09-24 03:00:00 17.1 4 Oeste 9 Norte 0 -- -- 38
2020-09-24 02:00:00 16.1 8 Nordeste 15 Norte 0 -- -- 48
2020-09-24 01:00:00 16.2 4 Norte 12 Noroeste 0 -- -- 51
2020-09-24 00:00:00 16.6 3 Noroeste 13 Sudeste 0 -- -- 50
2020-09-23 23:00:00 15.6 7 Sudeste 19 Noroeste 0 -- -- 59
2020-09-23 22:00:00 15.5 12 Norte 22 Noroeste 0 -- -- 63
2020-09-23 21:00:00 16.3 15 Norte 33 Noroeste 0 -- -- 58
2020-09-23 20:00:00 18.3 10 Norte 26 Noroeste 0 -- -- 48
2020-09-23 19:00:00 22.1 21 Noroeste 35 Noroeste 0 -- -- 37
2020-09-23 18:00:00 23.2 19 Noroeste 41 Noroeste 0 -- -- 34
2020-09-23 17:00:00 23.8 29 Noroeste 43 Noroeste 0 -- -- 35
2020-09-23 16:00:00 23.5 24 Noroeste 43 Noroeste 0 -- -- 41
2020-09-23 15:00:00 22.1 27 Noroeste 41 Noroeste 0 -- -- 44
2020-09-23 14:00:00 20.6 28 Noroeste 49 Noroeste 0 -- -- 45
2020-09-23 13:00:00 21.4 35 Noroeste 49 Norte 0 -- -- 45
2020-09-23 12:00:00 18.9 19 Noroeste 30 Norte 0 -- -- 49
2020-09-23 11:00:00 16.1 17 Norte 29 Norte 0 -- -- 53
2020-09-23 10:00:00 16.5 16 Norte 24 Norte 0 -- -- 48
2020-09-23 09:00:00 15 14 Norte 28 Norte 0 -- -- 56
2020-09-23 08:00:00 15.1 13 Norte 19 Norte 0 -- -- 53
2020-09-23 07:00:00 15.1 12 Norte 22 Norte 0 -- -- 52
2020-09-23 06:00:00 14.9 8 Norte 15 Norte 0 -- -- 53
2020-09-23 05:00:00 15.3 2 Noroeste 9 Noroeste 0 -- -- 52
2020-09-23 04:00:00 15.1 0 Calma 9 Norte 0 -- -- 55
2020-09-23 03:00:00 15.6 4 Norte 13 Noroeste 0 -- -- 54
2020-09-23 02:00:00 16.5 5 Oeste 15 Noroeste 0 -- -- 48
2020-09-23 01:00:00 16 7 Norte 11 Noroeste 0 -- -- 56
2020-09-23 00:00:00 16.6 3 Sudeste 7 Sudeste 0 -- -- 49
2020-09-22 23:00:00 16.1 0 Calma 11 Norte 0 -- -- 59
2020-09-22 22:00:00 15.9 9 Norte 14 Norte 0 -- -- 67
2020-09-22 21:00:00 16 12 Norte 17 Norte 0 -- -- 70
2020-09-22 20:00:00 17.3 13 Norte 26 Noroeste 0 -- -- 66
2020-09-22 19:00:00 19.9 21 Noroeste 28 Noroeste 0 -- -- 55
2020-09-22 18:00:00 21.1 21 Noroeste 33 Noroeste 0 -- -- 51
2020-09-22 17:00:00 22.1 20 Noroeste 33 Oeste 0 -- -- 49
2020-09-22 16:00:00 21.8 21 Noroeste 34 Noroeste 0 -- -- 49
2020-09-22 15:00:00 20.9 22 Noroeste 34 Noroeste 0 -- -- 50
2020-09-22 14:00:00 20.9 15 Noroeste 32 Norte 0 -- -- 49
2020-09-22 13:00:00 21 19 Noroeste 29 Noroeste 0 -- -- 46
2020-09-22 12:00:00 19.5 15 Noroeste 25 Noroeste 0 -- -- 53
2020-09-22 11:00:00 18.2 12 Noroeste 21 Oeste 0 -- -- 53
2020-09-22 10:00:00 16.8 7 Noroeste 11 Noroeste 0 -- -- 60
2020-09-22 09:00:00 14.9 3 Noroeste 7 Norte 0 -- -- 66
2020-09-22 08:00:00 14.4 3 Norte 6 Norte 0 -- -- 66
2020-09-22 07:00:00 14.9 0 Calma 4 Nordeste 0 -- -- 63
2020-09-22 06:00:00 15.1 4 Este 6 Este 0 -- -- 62
2020-09-22 05:00:00 15.3 3 Sudeste 8 Sudeste 0 -- -- 60
2020-09-22 04:00:00 14.7 7 Sudeste 10 Sudeste 0 -- -- 64
2020-09-22 03:00:00 14.9 5 Sudeste 8 Sudeste 0 -- -- 67
2020-09-22 02:00:00 15.7 4 Sudeste 10 Este 0 -- -- 64
2020-09-22 01:00:00 16 7 Este 13 Sudeste 0 -- -- 65
2020-09-22 00:00:00 15.7 7 Sudeste 10 Sudeste 0 -- -- 62
2020-09-21 23:00:00 15.8 3 Sudeste 7 Este 0 -- -- 69
2020-09-21 22:00:00 15.5 3 Sur 22 Este 0 -- -- 71
2020-09-21 21:00:00 16.2 4 Este 9 Sudeste 0 -- -- 69
2020-09-21 20:00:00 17.5 0 Calma 12 Noroeste 0 -- -- 68
2020-09-21 19:00:00 20.5 8 Noroeste 19 Noroeste 0 -- -- 57
2020-09-21 18:00:00 22.7 14 Noroeste 24 Noroeste 0 -- -- 52
2020-09-21 17:00:00 22.8 18 Noroeste 31 Noroeste 0 -- -- 50
2020-09-21 16:00:00 22.5 13 Noroeste 29 Oeste 0 -- -- 50
2020-09-21 15:00:00 22.2 17 Noroeste 33 Noroeste 0 -- -- 48
2020-09-21 14:00:00 21.7 15 Noroeste 26 Noroeste 0 -- -- 47
2020-09-21 13:00:00 20.4 13 Oeste 26 Noroeste 0 -- -- 52
2020-09-21 12:00:00 18.2 8 Norte 24 Noroeste 0 -- -- 59
2020-09-21 11:00:00 17 15 Noroeste 22 Noroeste 0 -- -- 65
2020-09-21 10:00:00 15 4 Noroeste 7 Noroeste 0 -- -- 66
2020-09-21 09:00:00 14.4 3 Norte 7 Nordeste 0 -- -- 62
2020-09-21 08:00:00 13.7 4 Nordeste 8 Norte 0 -- -- 65
2020-09-21 07:00:00 13.4 5 Nordeste 13 Norte 0 -- -- 71
2020-09-21 06:00:00 13.7 10 Norte 16 Norte 0 -- -- 73
2020-09-21 05:00:00 13.7 9 Norte 15 Norte 0 -- -- 74
2020-09-21 04:00:00 14 13 Norte 17 Norte 0 -- -- 73
2020-09-21 03:00:00 14.4 8 Norte 13 Norte 0 -- -- 70
2020-09-21 02:00:00 14.8 5 Norte 8 Norte 0 -- -- 68
2020-09-21 01:00:00 15.5 0 Calma 5 Sudeste 0 -- -- 64
2020-09-21 00:00:00 15.1 6 Sudeste 11 Sudeste 0 -- -- 65
2020-09-20 23:00:00 15 7 Sudeste 12 Este 0 -- -- 61
2020-09-20 22:00:00 15.1 5 Sudeste 9 Este 0 -- -- 65
2020-09-20 21:00:00 15.2 6 Sudeste 9 Sudeste 0 -- -- 71
2020-09-20 20:00:00 16.5 2 Este 19 Noroeste 0 -- -- 60
2020-09-20 19:00:00 18.7 16 Noroeste 23 Noroeste 0 -- -- 62
2020-09-20 18:00:00 21.2 15 Noroeste 29 Oeste 0 -- -- 55
2020-09-20 17:00:00 21.6 19 Noroeste 31 Noroeste 0 -- -- 54
2020-09-20 16:00:00 20.3 19 Noroeste 33 Noroeste 0 -- -- 58
2020-09-20 15:00:00 20.8 21 Noroeste 32 Noroeste 0 -- -- 56
2020-09-20 14:00:00 20.6 19 Noroeste 30 Noroeste 0 -- -- 56
2020-09-20 13:00:00 19.1 13 Oeste 21 Oeste 0 -- -- 54
2020-09-20 12:00:00 18.6 8 Noroeste 15 Oeste 0 -- -- 50
2020-09-20 11:00:00 17.2 7 Oeste 12 Oeste 0 -- -- 60
2020-09-20 10:00:00 15.7 4 Oeste 5 Oeste 0 -- -- 59
2020-09-20 09:00:00 14.2 3 Sudeste 6 Sudeste 0 -- -- 51
2020-09-20 08:00:00 12.5 3 Sudeste 5 Este 0 -- -- 71
2020-09-20 07:00:00 12.8 0 Calma 4 Nordeste 0 -- -- 72
2020-09-20 06:00:00 12.9 2 Sur 7 Nordeste 0 -- -- 59
2020-09-20 05:00:00 12.9 4 Sudeste 12 Sudeste 0 -- -- 65
2020-09-20 04:00:00 12.6 8 Sudeste 11 Sudeste 0 -- -- 71
2020-09-20 03:00:00 12.8 7 Sudeste 13 Sudeste 0 -- -- 80
2020-09-20 02:00:00 13.3 5 Sudeste 10 Sur 0 -- -- 79
2020-09-20 01:00:00 14 5 Sudeste 9 Sudeste 0 -- -- 73
2020-09-20 00:00:00 14.7 4 Sudeste 10 Sudeste 0 -- -- 72
2020-09-19 23:00:00 14.7 6 Sudeste 10 Sur 0 -- -- 72
2020-09-19 22:00:00 15.1 6 Sudeste 9 Este 0 -- -- 70
2020-09-19 21:00:00 14.6 5 Nordeste 15 Noroeste 0 -- -- 84
2020-09-19 20:00:00 16.6 6 Noroeste 21 Noroeste 0 -- -- 76
2020-09-19 19:00:00 20.7 15 Noroeste 29 Noroeste 0 -- -- 60
2020-09-19 18:00:00 21.3 21 Noroeste 35 Noroeste 0 -- -- 57
2020-09-19 17:00:00 21.4 23 Noroeste 37 Noroeste 0 -- -- 55
2020-09-19 16:00:00 21 24 Noroeste 39 Noroeste 0 -- -- 56
2020-09-19 15:00:00 21.1 21 Noroeste 44 Norte 0 -- -- 51
2020-09-19 14:00:00 19.3 28 Norte 44 Noroeste 0 -- -- 50
2020-09-19 13:00:00 19.4 25 Norte 42 Noroeste 0 -- -- 53
2020-09-19 12:00:00 18.4 22 Norte 34 Norte 0 -- -- 52
2020-09-19 11:00:00 17.4 12 Noroeste 18 Noroeste 0 -- -- 50
2020-09-19 10:00:00 14.6 8 Noroeste 21 Noroeste 0 -- -- 64
2020-09-19 09:00:00 11.2 18 Norte 33 Noroeste 0 -- -- 76
2020-09-19 08:00:00 10.9 23 Norte 32 Noroeste 0 -- -- 72
2020-09-19 07:00:00 10.6 21 Norte 34 Norte 0 -- -- 65
2020-09-19 06:00:00 10.8 21 Norte 29 Norte 0 -- -- 57
2020-09-19 05:00:00 11 21 Noroeste 42 Noroeste 0 -- -- 58
2020-09-19 04:00:00 11.6 31 Noroeste 51 Noroeste 0 -- -- 61
2020-09-19 03:00:00 10.8 22 Noroeste 44 Norte 0 -- -- 74
2020-09-19 02:00:00 12.1 32 Norte 56 Norte 0 -- -- 60
2020-09-19 01:00:00 12.2 40 Norte 53 Norte 0 -- -- 64
2020-09-19 00:00:00 12 22 Norte 36 Norte 0 -- -- 93
2020-09-18 23:00:00 12.7 25 Norte 36 Noroeste 0 -- -- 98
2020-09-18 22:00:00 13.5 23 Noroeste 35 Norte 0 -- -- 97
2020-09-18 21:00:00 13.8 18 Noroeste 32 Noroeste 0 -- -- 98
2020-09-18 20:00:00 14.3 17 Noroeste 30 Noroeste 0 -- -- 95
2020-09-18 19:00:00 15.6 20 Noroeste 29 Noroeste 0 -- -- 89
2020-09-18 18:00:00 16.8 19 Noroeste 35 Oeste 0 -- -- 88
2020-09-18 17:00:00 14.9 16 Noroeste 35 Noroeste 0 -- -- 98
2020-09-18 16:00:00 14.4 14 Noroeste 28 Norte 0 -- -- 100
2020-09-18 15:00:00 12.9 22 Noroeste 38 Noroeste 0 -- -- 100
2020-09-18 14:00:00 12.8 18 Noroeste 43 Norte 0.8 -- -- 100
2020-09-18 13:00:00 11.7 26 Norte 42 Noroeste 2.2 -- -- 100
2020-09-18 12:00:00 12.8 32 Noroeste 51 Noroeste 5 -- -- 100
2020-09-18 11:00:00 12.6 28 Oeste 49 Oeste 0.8 -- -- 99
2020-09-18 10:00:00 12.8 19 Noroeste 40 Noroeste 2.2 -- -- 99
2020-09-18 09:00:00 12.9 15 Noroeste 37 Noroeste 0.4 -- -- 97
2020-09-18 08:00:00 13 16 Noroeste 28 Noroeste 0 -- -- 96
2020-09-18 07:00:00 13 23 Noroeste 36 Noroeste 0 -- -- 93
2020-09-18 06:00:00 12.4 29 Norte 58 Norte 2 -- -- 97
2020-09-18 05:00:00 11.1 23 Norte 42 Noroeste 6 -- -- 98
2020-09-18 04:00:00 11.2 6 Noroeste 27 Norte 3.2 -- -- 97
2020-09-18 03:00:00 11.5 12 Norte 24 Norte 1.4 -- -- 91
2020-09-18 02:00:00 11.5 13 Noroeste 51 Noroeste 2.4 -- -- 96
2020-09-18 01:00:00 11.9 26 Noroeste 57 Noroeste 1.6 -- -- 90
2020-09-18 00:00:00 13.7 10 Noroeste 22 Noroeste 0 -- -- 81
2020-09-17 23:00:00 14.4 8 Noroeste 31 Noroeste 0 -- -- 80
2020-09-17 22:00:00 16 22 Noroeste 40 Noroeste 0 -- -- 74
2020-09-17 21:00:00 16.4 23 Norte 35 Norte 0 -- -- 73
2020-09-17 20:00:00 16.5 21 Norte 31 Noroeste 0 -- -- 73
2020-09-17 19:00:00 19.9 14 Noroeste 29 Noroeste 0 -- -- 50
2020-09-17 18:00:00 22.3 19 Oeste 39 Oeste 0 -- -- 41
2020-09-17 17:00:00 21.3 20 Noroeste 35 Noroeste 0 -- -- 46
2020-09-17 16:00:00 22.5 25 Oeste 40 Noroeste 0 -- -- 42
2020-09-17 15:00:00 22.3 26 Noroeste 40 Oeste 0 -- -- 44
2020-09-17 14:00:00 21.1 18 Noroeste 35 Oeste 0 -- -- 48
2020-09-17 13:00:00 21.5 18 Noroeste 32 Norte 0 -- -- 47
2020-09-17 12:00:00 19.5 13 Noroeste 27 Norte 0 -- -- 55
2020-09-17 11:00:00 18.8 7 Noroeste 17 Noroeste 0 -- -- 60
2020-09-17 10:00:00 18.2 10 Noroeste 16 Norte 0 -- -- 64
2020-09-17 09:00:00 15 12 Norte 24 Norte 0 -- -- 78
2020-09-17 08:00:00 15 18 Norte 32 Norte 0 -- -- 75
2020-09-17 07:00:00 14.5 16 Norte 34 Norte 0.2 -- -- 80
2020-09-17 06:00:00 15 22 Noroeste 27 Norte 0 -- -- 76
2020-09-17 05:00:00 16.1 23 Norte 37 Noroeste 0 -- -- 66
2020-09-17 04:00:00 16.2 9 Norte 25 Norte 0 -- -- 63
2020-09-17 03:00:00 17.3 12 Norte 17 Norte 0 -- -- 40
2020-09-17 02:00:00 16.7 10 Norte 15 Norte 0 -- -- 41
2020-09-17 01:00:00 17.2 6 Nordeste 9 Norte 0 -- -- 32
2020-09-17 00:00:00 17.8 5 Norte 8 Norte 0 -- -- 39
2020-09-16 23:00:00 17.7 5 Nordeste 7 Nordeste 0 -- -- 42
2020-09-16 22:00:00 18.3 0 Calma 6 Norte 0 -- -- 41
2020-09-16 21:00:00 18.3 4 Noroeste 10 Noroeste 0 -- -- 41
2020-09-16 20:00:00 19.3 9 Norte 22 Noroeste 0 -- -- 41
2020-09-16 19:00:00 21.5 14 Noroeste 21 Noroeste 0 -- -- 46
2020-09-16 18:00:00 22.5 12 Noroeste 20 Oeste 0 -- -- 40
2020-09-16 17:00:00 22.9 8 Noroeste 19 Noroeste 0 -- -- 40
2020-09-16 16:00:00 23.1 14 Noroeste 32 Noroeste 0 -- -- 44
2020-09-16 15:00:00 24.8 18 Noroeste 30 Oeste 0 -- -- 35
2020-09-16 14:00:00 23.6 14 Oeste 23 Oeste 0 -- -- 39
2020-09-16 13:00:00 22.4 14 Noroeste 25 Oeste 0 -- -- 40
2020-09-16 12:00:00 22.6 15 Noroeste 24 Oeste 0 -- -- 33
2020-09-16 11:00:00 21.7 5 Oeste 11 Oeste 0 -- -- 32
2020-09-16 10:00:00 20.1 4 Noroeste 13 Norte 0 -- -- 26
2020-09-16 09:00:00 17 9 Norte 13 Norte 0 -- -- 34
2020-09-16 08:00:00 17 6 Sudeste 8 Sudeste 0 -- -- 47
2020-09-16 07:00:00 16.5 5 Sudeste 5 Sudeste 0 -- -- 47
2020-09-16 06:00:00 15.8 5 Norte 14 Noroeste 0 -- -- 39
2020-09-16 05:00:00 17.8 0 Calma 4 Este 0 -- -- 47
2020-09-16 04:00:00 17.6 0 Calma 8 Sudeste 0 -- -- 48
2020-09-16 03:00:00 17.4 0 Calma 7 Nordeste 0 -- -- 50
2020-09-16 02:00:00 18.1 3 Este 6 Sudeste 0 -- -- 46
2020-09-16 01:00:00 18.2 0 Calma 5 Nordeste 0 -- -- 46
2020-09-16 00:00:00 17.9 5 Sudeste 10 Nordeste 0 -- -- 53
2020-09-15 23:00:00 18 7 Nordeste 8 Norte 0 -- -- 42
2020-09-15 22:00:00 18.2 6 Este 9 Sudeste 0 -- -- 56
2020-09-15 21:00:00 17.8 5 Este 8 Este 0 -- -- 58
2020-09-15 20:00:00 20.3 6 Noroeste 12 Noroeste 0 -- -- 49
2020-09-15 19:00:00 22.8 9 Oeste 23 Norte 0 -- -- 41
2020-09-15 18:00:00 25.2 13 Norte 26 Noroeste 0 -- -- 38
2020-09-15 17:00:00 25.2 13 Noroeste 26 Oeste 0 -- -- 38
2020-09-15 16:00:00 24.6 13 Oeste 27 Noroeste 0 -- -- 39
2020-09-15 15:00:00 23.6 14 Oeste 30 Noroeste 0 -- -- 40
2020-09-15 14:00:00 24.3 16 Noroeste 26 Oeste 0 -- -- 36
2020-09-15 13:00:00 23.4 9 Oeste 21 Noroeste 0 -- -- 33
2020-09-15 12:00:00 21.8 12 Oeste 26 Oeste 0 -- -- 35
2020-09-15 11:00:00 20.3 7 Sudoeste 14 Sudoeste 0 -- -- 35
2020-09-15 10:00:00 19.7 3 Sudoeste 9 Sudoeste 0 -- -- 38
2020-09-15 09:00:00 17.1 0 Calma 8 Norte 0 -- -- 51
2020-09-15 08:00:00 16.5 0 Calma 8 Sudeste 0 -- -- 52
2020-09-15 07:00:00 16.1 4 Sur 10 Sudeste 0 -- -- 53
2020-09-15 06:00:00 16.3 2 Este 31 Nordeste 0 -- -- 55
2020-09-15 05:00:00 15.1 21 Nordeste 30 Norte 0.2 -- -- 70
2020-09-15 04:00:00 17.3 4 Este 12 Sudeste 0 -- -- 49
2020-09-15 03:00:00 17.3 9 Sudeste 13 Este 0 -- -- 54
2020-09-15 02:00:00 17.3 6 Nordeste 19 Sudeste 0 -- -- 62
2020-09-15 01:00:00 16.5 4 Sudoeste 9 Sudeste 0 -- -- 56
2020-09-15 00:00:00 16.4 6 Este 12 Sudeste 0 -- -- 57
2020-09-14 23:00:00 15.6 5 Norte 17 Sur 0 -- -- 62
2020-09-14 22:00:00 17.1 11 Sur 25 Este 0 -- -- 65
2020-09-14 21:00:00 17 13 Este 30 Norte 0 -- -- 73
2020-09-14 20:00:00 19.3 9 Sur 17 Sur 0 -- -- 50
2020-09-14 19:00:00 20.1 7 Sudoeste 17 Sur 0 -- -- 47
2020-09-14 18:00:00 21.1 9 Sudoeste 25 Norte 0 -- -- 47
2020-09-14 17:00:00 22.6 11 Noroeste 29 Noroeste 0 -- -- 45
2020-09-14 16:00:00 25.4 9 Sudoeste 32 Noroeste 0 -- -- 27
2020-09-14 15:00:00 23.7 13 Sudoeste 26 Sudoeste 0 -- -- 26
2020-09-14 14:00:00 22.6 10 Sudoeste 22 Sudoeste 0 -- -- 28
2020-09-14 13:00:00 21.4 5 Sur 27 Sur 0 -- -- 29
2020-09-14 12:00:00 23.7 14 Sur 24 Sur 0 -- -- 25
2020-09-14 11:00:00 22.1 11 Sudoeste 19 Sudoeste 0 -- -- 30
2020-09-14 10:00:00 21.2 6 Sur 20 Sur 0 -- -- 27
2020-09-14 09:00:00 18.5 8 Sur 23 Sur 0 -- -- 29
2020-09-14 08:00:00 17 10 Sudeste 26 Sur 0 -- -- 33
2020-09-14 07:00:00 16.9 9 Sudeste 20 Sudeste 0 -- -- 32
2020-09-14 06:00:00 17.4 7 Sudeste 15 Sudeste 0 -- -- 31
2020-09-14 05:00:00 17.9 9 Sudeste 20 Sudeste 0 -- -- 31
2020-09-14 04:00:00 17.9 11 Sudeste 23 Sur 0 -- -- 33
2020-09-14 03:00:00 17.4 9 Sudeste 17 Sudeste 0 -- -- 34
2020-09-14 02:00:00 17.7 9 Sudeste 15 Sudeste 0 -- -- 31
2020-09-14 01:00:00 16.8 8 Sudeste 19 Sur 0 -- -- 40
2020-09-14 00:00:00 17.3 6 Sudeste 29 Sudeste 0 -- -- 38
2020-09-13 23:00:00 17.1 12 Sudeste 29 Sudeste 0 -- -- 42
2020-09-13 22:00:00 16.7 10 Sudeste 25 Sur 0 -- -- 47
2020-09-13 21:00:00 16.6 10 Sur 24 Sur 0 -- -- 59
2020-09-13 20:00:00 18.2 6 Sudeste 23 Sur 0 -- -- 54
2020-09-13 19:00:00 21.2 10 Sur 27 Sur 0 -- -- 46
2020-09-13 18:00:00 21.2 12 Sur 31 Sudeste 0 -- -- 42
2020-09-13 17:00:00 20.8 10 Sur 31 Sudoeste 0 -- -- 40
2020-09-13 16:00:00 21.8 12 Sur 32 Sur 0 -- -- 39
2020-09-13 15:00:00 22.5 9 Sur 28 Sur 0 -- -- 38
2020-09-13 14:00:00 21.6 10 Sur 26 Sur 0 -- -- 41
2020-09-13 13:00:00 21.1 9 Sur 33 Sur 0 -- -- 41
2020-09-13 12:00:00 22.9 9 Sur 24 Sudeste 0 -- -- 31
2020-09-13 11:00:00 22.4 7 Sur 26 Sur 0 -- -- 26
2020-09-13 10:00:00 20.7 6 Sudeste 21 Sudeste 0 -- -- 26
2020-09-13 09:00:00 18.6 4 Sur 21 Sudeste 0 -- -- 23
2020-09-13 08:00:00 18.1 7 Sudeste 22 Sudeste 0 -- -- 28
2020-09-13 07:00:00 17.6 8 Sudeste 21 Sur 0 -- -- 26
2020-09-13 06:00:00 17.6 8 Sudeste 25 Sudeste 0 -- -- 29
2020-09-13 05:00:00 17.3 9 Sudeste 23 Sur 0 -- -- 30
2020-09-13 04:00:00 17.4 8 Sudeste 21 Sur 0 -- -- 29
2020-09-13 03:00:00 17.3 9 Sudeste 24 Sur 0 -- -- 36
2020-09-13 02:00:00 17.5 8 Sudeste 23 Sudeste 0 -- -- 41
2020-09-13 01:00:00 17.5 8 Sudeste 26 Sudeste 0 -- -- 40
2020-09-13 00:00:00 17.7 7 Sudeste 23 Sudeste 0 -- -- 37
2020-09-12 23:00:00 17.7 7 Sudeste 23 Sur 0 -- -- 37
2020-09-12 22:00:00 18.4 9 Sudeste 26 Sur 0 -- -- 37
2020-09-12 21:00:00 17.4 7 Sur 14 Sudeste 0 -- -- 41
2020-09-12 20:00:00 20.2 5 Sudeste 23 Sur 0 -- -- 35
2020-09-12 19:00:00 23.6 9 Sur 28 Sur 0 -- -- 29
2020-09-12 18:00:00 24.9 11 Sur 28 Sur 0 -- -- 27
2020-09-12 17:00:00 25.2 11 Sur 28 Sudoeste 0 -- -- 27
2020-09-12 16:00:00 25.5 14 Sur 30 Sur 0 -- -- 26
2020-09-12 15:00:00 24.8 14 Sudoeste 27 Sur 0 -- -- 25
2020-09-12 14:00:00 24.8 13 Sur 32 Sur 0 -- -- 24
2020-09-12 13:00:00 24.7 14 Sudoeste 26 Sur 0 -- -- 24
2020-09-12 12:00:00 24.1 12 Sur 21 Sur 0 -- -- 23
2020-09-12 11:00:00 23 7 Sur 17 Sur 0 -- -- 23
2020-09-12 10:00:00 22 4 Sur 12 Sur 0 -- -- 27
2020-09-12 09:00:00 18.5 7 Sur 12 Sudeste 0 -- -- 35
2020-09-12 08:00:00 17 8 Sudeste 12 Sudeste 0 -- -- 35
2020-09-12 07:00:00 17.3 6 Sudeste 10 Sudeste 0 -- -- 40
2020-09-12 06:00:00 17.7 5 Sudeste 8 Sudeste 0 -- -- 40
2020-09-12 05:00:00 17.8 5 Sudeste 8 Sudeste 0 -- -- 39
2020-09-12 04:00:00 17.5 5 Sudeste 9 Sudeste 0 -- -- 41
2020-09-12 03:00:00 17.6 5 Sudeste 8 Sudeste 0 -- -- 41
2020-09-12 02:00:00 17.6 3 Este 7 Este 0 -- -- 40
2020-09-12 01:00:00 18.4 2 Norte 9 Sudeste 0 -- -- 37
2020-09-12 00:00:00 18.4 7 Sudeste 9 Sudeste 0 -- -- 37
2020-09-11 23:00:00 17.7 5 Nordeste 8 Nordeste 0 -- -- 40
2020-09-11 22:00:00 18.3 6 Nordeste 10 Nordeste 0 -- -- 39
2020-09-11 21:00:00 18.1 5 Este 9 Noroeste 0 -- -- 46
2020-09-11 20:00:00 19.7 9 Norte 21 Noroeste 0 -- -- 42
2020-09-11 19:00:00 24.2 17 Norte 29 Noroeste 0 -- -- 33
2020-09-11 18:00:00 23.4 16 Noroeste 31 Noroeste 0 -- -- 38
2020-09-11 17:00:00 25 20 Noroeste 37 Noroeste 0 -- -- 35
2020-09-11 16:00:00 25 22 Noroeste 35 Noroeste 0 -- -- 35
2020-09-11 15:00:00 24.5 20 Noroeste 34 Noroeste 0 -- -- 31
2020-09-11 14:00:00 23.7 22 Noroeste 37 Noroeste 0 -- -- 32
2020-09-11 13:00:00 24.4 17 Noroeste 28 Noroeste 0 -- -- 29
2020-09-11 12:00:00 22.2 12 Noroeste 24 Oeste 0 -- -- 33
2020-09-11 11:00:00 20.5 10 Noroeste 18 Noroeste 0 -- -- 37
2020-09-11 10:00:00 18.6 10 Noroeste 15 Noroeste 0 -- -- 41
2020-09-11 09:00:00 18 4 Noroeste 9 Noroeste 0 -- -- 40
2020-09-11 08:00:00 16.4 4 Este 5 Sudeste 0 -- -- 44
2020-09-11 07:00:00 16 2 Nordeste 5 Este 0 -- -- 43
2020-09-11 06:00:00 16.4 5 Sudeste 7 Este 0 -- -- 42
2020-09-11 05:00:00 15.8 3 Este 7 Norte 0 -- -- 44
2020-09-11 04:00:00 16.6 0 Calma 8 Norte 0 -- -- 42
2020-09-11 03:00:00 16 4 Norte 8 Norte 0 -- -- 48
2020-09-11 02:00:00 16.4 3 Norte 10 Norte 0 -- -- 47
2020-09-11 01:00:00 15.8 2 Nordeste 11 Norte 0 -- -- 56
2020-09-11 00:00:00 15.6 6 Norte 12 Norte 0 -- -- 51
2020-09-10 23:00:00 16 5 Norte 7 Norte 0 -- -- 48
2020-09-10 22:00:00 16.1 4 Nordeste 12 Norte 0 -- -- 46
2020-09-10 21:00:00 16.7 10 Norte 20 Norte 0 -- -- 42
2020-09-10 20:00:00 20.6 15 Noroeste 29 Noroeste 0 -- -- 33
2020-09-10 19:00:00 22 22 Noroeste 33 Noroeste 0 -- -- 33
2020-09-10 18:00:00 23.2 19 Noroeste 36 Oeste 0 -- -- 32
2020-09-10 17:00:00 23.4 23 Noroeste 37 Noroeste 0 -- -- 31
2020-09-10 16:00:00 22.9 23 Noroeste 41 Noroeste 0 -- -- 35
2020-09-10 15:00:00 24.3 26 Noroeste 41 Noroeste 0 -- -- 35
2020-09-10 14:00:00 23.7 20 Noroeste 31 Noroeste 0 -- -- 34
2020-09-10 13:00:00 22.9 17 Noroeste 30 Noroeste 0 -- -- 35
2020-09-10 12:00:00 21 11 Oeste 18 Oeste 0 -- -- 39
2020-09-10 11:00:00 20.5 8 Oeste 14 Sudoeste 0 -- -- 36
2020-09-10 10:00:00 19.6 3 Este 10 Oeste 0 -- -- 34
2020-09-10 09:00:00 17.1 3 Sudeste 13 Este 0 -- -- 53
2020-09-10 08:00:00 14.2 0 Calma 13 Este 0 -- -- 62
2020-09-10 07:00:00 14.4 4 Nordeste 10 Este 0 -- -- 61
2020-09-10 06:00:00 13.7 5 Noroeste 13 Oeste 0 -- -- 71
2020-09-10 05:00:00 14.8 3 Nordeste 10 Oeste 0 -- -- 65
2020-09-10 04:00:00 13.9 3 Este 11 Norte 0 -- -- 75
2020-09-10 03:00:00 13.2 2 Oeste 4 Oeste 0 -- -- 87
2020-09-10 02:00:00 13.7 0 Calma 6 Nordeste 0 -- -- 86
2020-09-10 01:00:00 13.2 3 Sur 4 Sur 0 -- -- 85
2020-09-10 00:00:00 14 3 Nordeste 8 Nordeste 0 -- -- 83
2020-09-09 23:00:00 14.7 5 Norte 10 Nordeste 0 -- -- 85
2020-09-09 22:00:00 14.6 4 Sur 7 Sudeste 0 -- -- 85
2020-09-09 21:00:00 15.2 4 Sudeste 9 Oeste 0 -- -- 86
2020-09-09 20:00:00 17.2 4 Norte 15 Oeste 0 -- -- 79
2020-09-09 19:00:00 20.3 13 Noroeste 19 Noroeste 0 -- -- 66
2020-09-09 18:00:00 19.6 10 Noroeste 30 Noroeste 0 -- -- 65
2020-09-09 17:00:00 22.8 18 Noroeste 31 Noroeste 0 -- -- 54
2020-09-09 16:00:00 22.2 18 Noroeste 31 Noroeste 0 -- -- 55
2020-09-09 15:00:00 20.4 15 Noroeste 29 Norte 0 -- -- 58
2020-09-09 14:00:00 22.3 17 Noroeste 33 Oeste 0 -- -- 52
2020-09-09 13:00:00 20.9 15 Noroeste 24 Noroeste 0 -- -- 52
2020-09-09 12:00:00 19.7 8 Noroeste 17 Noroeste 0 -- -- 55
2020-09-09 11:00:00 17.7 6 Oeste 10 Noroeste 0 -- -- 64
2020-09-09 10:00:00 15.5 3 Noroeste 6 Noroeste 0 -- -- 68
2020-09-09 09:00:00 13.9 3 Noroeste 5 Oeste 0 -- -- 71
2020-09-09 08:00:00 13.4 0 Calma 6 Este 0 -- -- 72
2020-09-09 07:00:00 13.2 3 Este 10 Este 0 -- -- 71
2020-09-09 06:00:00 12.9 6 Este 9 Sudeste 0 -- -- 70
2020-09-09 05:00:00 11.8 4 Sudeste 8 Sudeste 0 -- -- 77
2020-09-09 04:00:00 11.6 2 Sudeste 8 Sudeste 0 -- -- 80
2020-09-09 03:00:00 12.3 3 Sudeste 8 Sudeste 0 -- -- 76
2020-09-09 02:00:00 12.5 6 Sudeste 13 Sur 0 -- -- 78
2020-09-09 01:00:00 10.7 9 Sudeste 15 Sur 0 -- -- 98
2020-09-09 00:00:00 10.9 12 Sur 17 Sur 0 -- -- 97
2020-09-08 23:00:00 11.8 9 Sur 16 Sur 0 -- -- 92
2020-09-08 22:00:00 12.1 3 Sur 22 Sur 0 -- -- 90
2020-09-08 21:00:00 12.8 8 Sur 19 Sudeste 0 -- -- 92
2020-09-08 20:00:00 14.3 5 Sur 24 Sur 0 -- -- 83
2020-09-08 19:00:00 15.2 10 Sudoeste 24 Sudoeste 0 -- -- 75
2020-09-08 18:00:00 16.9 4 Sudoeste 12 Sur 0 -- -- 66
2020-09-08 17:00:00 16.2 5 Sur 16 Sur 0 -- -- 68
2020-09-08 16:00:00 15.8 4 Sudeste 12 Este 0 -- -- 72
2020-09-08 15:00:00 15.1 5 Sudeste 13 Sudoeste 0 -- -- 77
2020-09-08 14:00:00 13.7 6 Sur 17 Sur 0 -- -- 82
2020-09-08 13:00:00 14.2 9 Sur 18 Sudoeste 0 -- -- 81
2020-09-08 12:00:00 13.8 10 Sudoeste 18 Sudoeste 0 -- -- 83
2020-09-08 11:00:00 15.8 7 Sur 17 Sur 0 -- -- 72
2020-09-08 10:00:00 12.6 6 Sur 22 Sur 0 -- -- 86
2020-09-08 09:00:00 11.8 8 Sur 18 Sur 0 -- -- 95
2020-09-08 08:00:00 11.4 6 Sur 14 Sur 0 -- -- 98
2020-09-08 07:00:00 12 7 Sur 12 Sur 0 -- -- 99
2020-09-08 06:00:00 12.5 7 Sur 13 Sur 0 -- -- 99
2020-09-08 05:00:00 13 4 Sur 14 Sur 0 -- -- 98
2020-09-08 04:00:00 13.5 3 Sur 11 Sudeste 0 -- -- 97
2020-09-08 03:00:00 13.3 3 Sudeste 14 Sur 0 -- -- 94
2020-09-08 02:00:00 13.2 4 Sudeste 16 Sur 0 -- -- 97
2020-09-08 01:00:00 13.2 7 Sudeste 22 Sur 0 -- -- 98
2020-09-08 00:00:00 13.9 13 Sur 22 Sur 0 -- -- 97
2020-09-07 23:00:00 14.5 7 Sur 23 Sur 0 -- -- 96
2020-09-07 22:00:00 15.2 11 Sur 16 Sur 0 -- -- 94
2020-09-07 21:00:00 16.3 3 Oeste 12 Noroeste 0 -- -- 91
2020-09-07 20:00:00 20.5 8 Noroeste 17 Sur 0 -- -- 68
2020-09-07 19:00:00 22.3 10 Sudoeste 23 Oeste 0 -- -- 62
2020-09-07 18:00:00 21.8 11 Noroeste 29 Noroeste 0 -- -- 56
2020-09-07 17:00:00 26.2 18 Noroeste 31 Noroeste 0 -- -- 43
2020-09-07 16:00:00 26 16 Noroeste 30 Noroeste 0 -- -- 41
2020-09-07 15:00:00 26.8 19 Noroeste 31 Norte 0 -- -- 32
2020-09-07 14:00:00 27.2 19 Noroeste 32 Noroeste 0 -- -- 29
2020-09-07 13:00:00 26.5 17 Noroeste 27 Noroeste 0 -- -- 30
2020-09-07 12:00:00 26.3 9 Noroeste 36 Nordeste 0 -- -- 29
2020-09-07 11:00:00 24.2 12 Nordeste 22 Norte 0 -- -- 25
2020-09-07 10:00:00 22.4 13 Nordeste 25 Nordeste 0 -- -- 33
2020-09-07 09:00:00 20.5 20 Nordeste 31 Nordeste 0 -- -- 38
2020-09-07 08:00:00 19.1 15 Norte 21 Norte 0 -- -- 39
2020-09-07 07:00:00 19 15 Norte 26 Norte 0 -- -- 39
2020-09-07 06:00:00 19.1 20 Norte 26 Norte 0 -- -- 40
2020-09-07 05:00:00 16.7 3 Noroeste 10 Noroeste 0 -- -- 48
2020-09-07 04:00:00 16.6 7 Norte 13 Noroeste 0 -- -- 46
2020-09-07 03:00:00 17.1 8 Norte 10 Nordeste 0 -- -- 48
2020-09-07 02:00:00 17.9 5 Norte 10 Este 0 -- -- 40
2020-09-07 01:00:00 18 4 Este 12 Este 0 -- -- 40
2020-09-07 00:00:00 17.7 7 Sudeste 13 Sudeste 0 -- -- 37
2020-09-06 23:00:00 18.6 7 Sudeste 11 Sudeste 0 -- -- 50
2020-09-06 22:00:00 17.6 8 Sudeste 13 Sudeste 0 -- -- 59
2020-09-06 21:00:00 17.4 8 Sudeste 12 Sudeste 0 -- -- 73
2020-09-06 20:00:00 19.8 5 Sur 16 Oeste 0 -- -- 65
2020-09-06 19:00:00 21.4 10 Oeste 24 Oeste 0 -- -- 57
2020-09-06 18:00:00 22.9 12 Sudoeste 23 Sudoeste 0 -- -- 54
2020-09-06 17:00:00 23.9 14 Noroeste 23 Oeste 0 -- -- 59
2020-09-06 16:00:00 22.9 14 Noroeste 25 Noroeste 0 -- -- 61
2020-09-06 15:00:00 22.7 13 Noroeste 26 Oeste 0 -- -- 60
2020-09-06 14:00:00 21.7 8 Oeste 23 Oeste 0 -- -- 59
2020-09-06 13:00:00 21.8 11 Noroeste 21 Noroeste 0 -- -- 56
2020-09-06 12:00:00 19.5 11 Oeste 18 Oeste 0 -- -- 64
2020-09-06 11:00:00 19.4 6 Oeste 10 Oeste 0 -- -- 66
2020-09-06 10:00:00 18.1 5 Oeste 10 Sudeste 0 -- -- 70
2020-09-06 09:00:00 16.9 7 Sudeste 12 Sur 0 -- -- 51
2020-09-06 08:00:00 14.5 0 Calma 8 Sudeste 0 -- -- 58
2020-09-06 07:00:00 14.9 4 Sudeste 8 Sur 0 -- -- 55
2020-09-06 06:00:00 15.4 5 Sudeste 9 Sudeste 0 -- -- 53
2020-09-06 05:00:00 16.2 5 Sudeste 8 Sudeste 0 -- -- 54
2020-09-06 04:00:00 16.5 3 Sur 10 Sur 0 -- -- 55
2020-09-06 03:00:00 16.4 4 Este 8 Este 0 -- -- 55
2020-09-06 02:00:00 15.9 5 Sur 20 Sur 0 -- -- 64
2020-09-06 01:00:00 15.5 7 Sudeste 16 Sudeste 0 -- -- 75
2020-09-06 00:00:00 17 5 Sudeste 12 Sudeste 0 -- -- 67
2020-09-05 23:00:00 16.1 8 Sudeste 10 Sudeste 0 -- -- 69
2020-09-05 22:00:00 15.9 6 Sudeste 10 Sudeste 0 -- -- 81
2020-09-05 21:00:00 16.5 3 Sur 9 Sudoeste 0 -- -- 78
2020-09-05 20:00:00 20.1 5 Sudoeste 15 Sudoeste 0 -- -- 58
2020-09-05 19:00:00 21.6 9 Sudoeste 21 Sudoeste 0 -- -- 54
2020-09-05 18:00:00 22.3 12 Sudoeste 21 Oeste 0 -- -- 51
2020-09-05 17:00:00 23.2 15 Noroeste 27 Noroeste 0 -- -- 55
2020-09-05 16:00:00 23.5 13 Noroeste 24 Noroeste 0 -- -- 51
2020-09-05 15:00:00 23.9 11 Noroeste 24 Oeste 0 -- -- 47
2020-09-05 14:00:00 23.7 12 Noroeste 25 Noroeste 0 -- -- 32
2020-09-05 13:00:00 21.9 9 Oeste 24 Oeste 0 -- -- 31
2020-09-05 12:00:00 21.7 12 Noroeste 17 Noroeste 0 -- -- 43
2020-09-05 11:00:00 19.5 7 Oeste 12 Oeste 0 -- -- 48
2020-09-05 10:00:00 18.5 3 Oeste 6 Oeste 0 -- -- 44
2020-09-05 09:00:00 18.4 0 Calma 5 Este 0 -- -- 37
2020-09-05 08:00:00 16.7 6 Este 10 Sudeste 0 -- -- 38
2020-09-05 07:00:00 16.3 6 Este 10 Sudeste 0 -- -- 41
2020-09-05 06:00:00 15.2 2 Sur 5 Sudeste 0 -- -- 58
2020-09-05 05:00:00 15.7 2 Sur 4 Sudeste 0 -- -- 57
2020-09-05 04:00:00 15.6 0 Calma 7 Este 0 -- -- 64
2020-09-05 03:00:00 15.7 0 Calma 5 Este 0 -- -- 70
2020-09-05 02:00:00 16 3 Este 6 Sur 0 -- -- 69
2020-09-05 01:00:00 16.8 2 Norte 8 Este 0 -- -- 68
2020-09-05 00:00:00 17.6 4 Este 9 Este 0 -- -- 66
2020-09-04 23:00:00 16.1 7 Sudeste 10 Este 0 -- -- 71
2020-09-04 22:00:00 15.7 0 Calma 6 Noroeste 0 -- -- 84
2020-09-04 21:00:00 16.9 2 Noroeste 10 Noroeste 0 -- -- 77
2020-09-04 20:00:00 20.7 6 Noroeste 15 Sur 0 -- -- 58
2020-09-04 19:00:00 22.6 8 Sudoeste 20 Sudoeste 0 -- -- 45
2020-09-04 18:00:00 23.3 12 Sudoeste 23 Sudoeste 0 -- -- 38
2020-09-04 17:00:00 24.4 8 Sudoeste 24 Sudoeste 0 -- -- 35
2020-09-04 16:00:00 24.1 13 Oeste 29 Noroeste 0 -- -- 32
2020-09-04 15:00:00 24.2 15 Oeste 31 Sudoeste 0 -- -- 30
2020-09-04 14:00:00 22.7 11 Sudoeste 23 Sur 0 -- -- 33
2020-09-04 13:00:00 22 13 Sudoeste 21 Sudoeste 0 -- -- 34
2020-09-04 12:00:00 20.3 11 Sudoeste 22 Sudoeste 0 -- -- 32
2020-09-04 11:00:00 19.5 11 Sur 19 Sudeste 0 -- -- 35
2020-09-04 10:00:00 17.8 9 Sur 20 Sur 0 -- -- 34
2020-09-04 09:00:00 15.5 8 Sur 14 Sur 0 -- -- 28
2020-09-04 08:00:00 13.8 10 Sudeste 18 Sudeste 0 -- -- 21
2020-09-04 07:00:00 13 8 Sudeste 26 Sur 0 -- -- 29
2020-09-04 06:00:00 13.6 8 Sudeste 24 Sur 0 -- -- 26
2020-09-04 05:00:00 12.8 12 Sur 26 Sudeste 0 -- -- 60
2020-09-04 04:00:00 14.6 15 Sur 27 Sur 0 -- -- 33
2020-09-04 03:00:00 12.9 9 Sudeste 18 Sur 0 -- -- 65
2020-09-04 02:00:00 14.5 10 Sur 27 Sur 0 -- -- 56
2020-09-04 01:00:00 14.6 10 Sur 30 Sudeste 0 -- -- 56
2020-09-04 00:00:00 13.9 10 Sur 24 Sur 0 -- -- 56
2020-09-03 23:00:00 13 5 Sur 23 Sur 0 -- -- 89
2020-09-03 22:00:00 14.3 9 Sudeste 22 Sur 0 -- -- 78
2020-09-03 21:00:00 15.1 7 Sur 23 Sur 0 -- -- 78
2020-09-03 20:00:00 18.2 8 Sur 28 Sur 0 -- -- 60
2020-09-03 19:00:00 19.8 13 Sur 32 Sur 0 -- -- 55
2020-09-03 18:00:00 20.1 13 Sudoeste 29 Sudoeste 0 -- -- 53
2020-09-03 17:00:00 20.8 12 Sudoeste 27 Sudoeste 0 -- -- 51
2020-09-03 16:00:00 21 10 Sur 29 Sur 0 -- -- 46
2020-09-03 15:00:00 23.4 12 Sur 27 Sudoeste 0 -- -- 32
2020-09-03 14:00:00 21.9 13 Sudoeste 28 Sur 0 -- -- 34
2020-09-03 13:00:00 21.5 13 Sudoeste 24 Sur 0 -- -- 34
2020-09-03 12:00:00 20.2 10 Sur 24 Sudoeste 0 -- -- 39
2020-09-03 11:00:00 19.5 8 Sur 18 Sudoeste 0 -- -- 44
2020-09-03 10:00:00 17.8 6 Sur 13 Sur 0 -- -- 49
2020-09-03 09:00:00 15.7 3 Sur 9 Sudeste 0 -- -- 58
2020-09-03 08:00:00 13.4 7 Sudeste 10 Sudeste 0 -- -- 59
2020-09-03 07:00:00 13.7 6 Sudeste 11 Sudeste 0 -- -- 64
2020-09-03 06:00:00 14.4 5 Sudeste 9 Sudeste 0 -- -- 62
2020-09-03 05:00:00 14.3 3 Sudeste 8 Sudeste 0 -- -- 62
2020-09-03 04:00:00 14.7 6 Sudeste 9 Sudeste 0 -- -- 63
2020-09-03 03:00:00 14.2 7 Sudeste 13 Sudeste 0 -- -- 68
2020-09-03 02:00:00 15 5 Sudeste 10 Sudeste 0 -- -- 69
2020-09-03 01:00:00 13.7 8 Sudeste 10 Este 0 -- -- 76
2020-09-03 00:00:00 14.6 5 Este 10 Este 0 -- -- 81
2020-09-02 23:00:00 14 9 Este 10 Sudeste 0 -- -- 81
2020-09-02 22:00:00 14.2 6 Sudeste 9 Este 0 -- -- 92
2020-09-02 21:00:00 14.1 3 Sur 8 Sudoeste 0 -- -- 95
2020-09-02 20:00:00 15.3 4 Noroeste 18 Noroeste 0 -- -- 93
2020-09-02 19:00:00 17.3 10 Noroeste 14 Noroeste 0 -- -- 81
2020-09-02 18:00:00 20.5 5 Noroeste 13 Noroeste 0 -- -- 71
2020-09-02 17:00:00 16.9 8 Noroeste 26 Noroeste 3.8 -- -- 89
2020-09-02 16:00:00 18.4 17 Noroeste 31 Noroeste 0 -- -- 67
2020-09-02 15:00:00 19.6 20 Noroeste 29 Noroeste 0 -- -- 64
2020-09-02 14:00:00 17.1 15 Noroeste 30 Noroeste 0 -- -- 73
2020-09-02 13:00:00 20.4 12 Sudoeste 26 Sudoeste 0 -- -- 53
2020-09-02 12:00:00 16.6 6 Sudoeste 16 Oeste 0 -- -- 65
2020-09-02 11:00:00 18.2 8 Oeste 15 Oeste 0 -- -- 59
2020-09-02 10:00:00 17 6 Oeste 10 Oeste 0 -- -- 56
2020-09-02 09:00:00 15.4 3 Sur 6 Sudeste 0 -- -- 58
2020-09-02 08:00:00 14.1 0 Calma 5 Sudeste 0 -- -- 55
2020-09-02 07:00:00 14 0 Calma 7 Este 0 -- -- 61
2020-09-02 06:00:00 13.7 3 Nordeste 6 Este 0 -- -- 63
2020-09-02 05:00:00 13.2 2 Este 6 Sudeste 0 -- -- 72
2020-09-02 04:00:00 13.3 4 Noroeste 7 Noroeste 0 -- -- 80
2020-09-02 03:00:00 14.1 0 Calma 7 Nordeste 0 -- -- 66
2020-09-02 02:00:00 14.8 3 Norte 6 Nordeste 0 -- -- 67
2020-09-02 01:00:00 15 0 Calma 6 Sudeste 0 -- -- 62
2020-09-02 00:00:00 15.4 0 Calma 6 Sudeste 0 -- -- 59
2020-09-01 23:00:00 15.5 3 Sudeste 6 Sudeste 0 -- -- 61
2020-09-01 22:00:00 15.5 3 Sudeste 8 Este 0 -- -- 65
2020-09-01 21:00:00 15.7 5 Sudeste 10 Noroeste 0 -- -- 69
2020-09-01 20:00:00 20.6 5 Noroeste 17 Noroeste 0 -- -- 52
2020-09-01 19:00:00 20.3 15 Noroeste 28 Noroeste 0 -- -- 57
2020-09-01 18:00:00 19.4 5 Oeste 35 Noroeste 0 -- -- 58
2020-09-01 17:00:00 17.8 9 Noroeste 17 Noroeste 0 -- -- 62
2020-09-01 16:00:00 17.6 13 Norte 28 Noroeste 0 -- -- 65
2020-09-01 15:00:00 19.7 7 Norte 27 Noroeste 0 -- -- 55
2020-09-01 14:00:00 18.7 10 Noroeste 23 Noroeste 0 -- -- 59
2020-09-01 13:00:00 18.9 5 Noroeste 21 Noroeste 0 -- -- 57
2020-09-01 12:00:00 18.9 5 Sudoeste 14 Oeste 0 -- -- 53
2020-09-01 11:00:00 17.2 8 Noroeste 14 Noroeste 0 -- -- 58
2020-09-01 10:00:00 16.5 5 Noroeste 13 Oeste 0 -- -- 65
2020-09-01 09:00:00 14.5 2 Sudeste 8 Sudeste 0 -- -- 69
2020-09-01 08:00:00 12.2 2 Nordeste 7 Noroeste 0 -- -- 87
2020-09-01 07:00:00 14.5 4 Nordeste 7 Nordeste 0 -- -- 60
2020-09-01 06:00:00 15.9 3 Este 6 Norte 0 -- -- 55
2020-09-01 05:00:00 14.9 5 Norte 14 Nordeste 0 -- -- 59
2020-09-01 04:00:00 14.8 9 Nordeste 12 Nordeste 0 -- -- 64
2020-09-01 03:00:00 15.2 8 Nordeste 23 Norte 0 -- -- 66
2020-09-01 02:00:00 14.6 13 Nordeste 19 Norte 0 -- -- 74
2020-09-01 01:00:00 14.6 8 Nordeste 18 Nordeste 0 -- -- 74
2020-09-01 00:00:00 14.4 9 Este 14 Este 0 -- -- 76
2020-08-31 23:00:00 12.6 6 Sudeste 14 Sur 0 -- -- 91
2020-08-31 22:00:00 13.3 2 Sudeste 13 Noroeste 0 -- -- 89
2020-08-31 21:00:00 14.8 7 Noroeste 22 Oeste 0 -- -- 84
2020-08-31 20:00:00 15.7 7 Noroeste 13 Noroeste 0 -- -- 78
2020-08-31 19:00:00 16.5 7 Noroeste 17 Noroeste 0 -- -- 77
2020-08-31 18:00:00 19 12 Noroeste 26 Noroeste 0 -- -- 68
2020-08-31 17:00:00 18.7 18 Noroeste 32 Noroeste 0 -- -- 68
2020-08-31 16:00:00 22.6 23 Noroeste 36 Noroeste 0 -- -- 51
2020-08-31 15:00:00 22.4 22 Noroeste 34 Noroeste 0 -- -- 47
2020-08-31 14:00:00 21.3 12 Oeste 31 Oeste 0 -- -- 37
2020-08-31 13:00:00 19.6 10 Sudoeste 30 Oeste 0 -- -- 32
2020-08-31 12:00:00 19 9 Sudoeste 23 Oeste 0 -- -- 47
2020-08-31 11:00:00 17.3 11 Sudoeste 19 Oeste 0 -- -- 48
2020-08-31 10:00:00 15.6 8 Sudoeste 16 Sur 0 -- -- 51
2020-08-31 09:00:00 14.3 6 Sudeste 12 Sudeste 0 -- -- 42
2020-08-31 08:00:00 12.4 6 Sudeste 11 Este 0 -- -- 47
2020-08-31 07:00:00 11.1 5 Sudeste 11 Sudeste 0 -- -- 63
2020-08-31 06:00:00 11.6 5 Nordeste 8 Este 0 -- -- 66
2020-08-31 05:00:00 11.6 3 Este 9 Sudeste 0 -- -- 66
2020-08-31 04:00:00 10.4 7 Sudeste 11 Sur 0 -- -- 90
2020-08-31 03:00:00 11 5 Sudeste 9 Este 0 -- -- 88
2020-08-31 02:00:00 10.9 7 Este 11 Este 0 -- -- 88
2020-08-31 01:00:00 11.8 2 Sur 9 Sudoeste 0 -- -- 96
2020-08-31 00:00:00 12.5 2 Sudeste 4 Noroeste 0 -- -- 94
2020-08-30 23:00:00 13.1 0 Calma 6 Sudoeste 0 -- -- 94
2020-08-30 22:00:00 13.4 2 Sur 10 Noroeste 0 -- -- 94
2020-08-30 21:00:00 13.7 10 Norte 24 Noroeste 0 -- -- 92
2020-08-30 20:00:00 14.7 19 Noroeste 32 Noroeste 0 -- -- 85
2020-08-30 19:00:00 16.4 22 Noroeste 34 Noroeste 0 -- -- 72
2020-08-30 18:00:00 18.9 26 Noroeste 43 Noroeste 0 -- -- 51
2020-08-30 17:00:00 22.7 24 Noroeste 37 Noroeste 0 -- -- 34
2020-08-30 16:00:00 20.4 19 Oeste 31 Oeste 0 -- -- 33
2020-08-30 15:00:00 19.1 10 Sudoeste 23 Oeste 0 -- -- 28
2020-08-30 14:00:00 20.6 12 Oeste 21 Sudoeste 0 -- -- 25
2020-08-30 13:00:00 17.5 10 Oeste 21 Noroeste 0 -- -- 28
2020-08-30 12:00:00 18.2 9 Noroeste 20 Noroeste 0 -- -- 27
2020-08-30 11:00:00 17 7 Noroeste 13 Noroeste 0 -- -- 29
2020-08-30 10:00:00 15.6 6 Sudoeste 15 Sudoeste 0 -- -- 39
2020-08-30 09:00:00 13.7 3 Sur 9 Sudeste 0 -- -- 39
2020-08-30 08:00:00 12.2 5 Sudeste 10 Sudeste 0 -- -- 35
2020-08-30 07:00:00 12.4 5 Sudeste 8 Este 0 -- -- 37
2020-08-30 06:00:00 12.3 6 Sudeste 8 Sudeste 0 -- -- 34
2020-08-30 05:00:00 12.8 4 Sudeste 6 Sudeste 0 -- -- 32
2020-08-30 04:00:00 12.9 4 Sudeste 8 Sudeste 0 -- -- 32
2020-08-30 03:00:00 13.3 4 Sur 6 Sur 0 -- -- 29
2020-08-30 02:00:00 14.5 3 Nordeste 7 Nordeste 0 -- -- 26
2020-08-30 01:00:00 15 4 Oeste 10 Sudoeste 0 -- -- 24
2020-08-30 00:00:00 15.2 5 Este 32 Nordeste 0 -- -- 23
2020-08-29 23:00:00 16.1 24 Nordeste 40 Nordeste 0 -- -- 23
2020-08-29 22:00:00 16.4 29 Nordeste 60 Nordeste 0 -- -- 23
2020-08-29 21:00:00 16.1 42 Este 62 Este 0 -- -- 29
2020-08-29 20:00:00 18.5 39 Nordeste 59 Nordeste 0 -- -- 15
2020-08-29 19:00:00 20 36 Nordeste 59 Este 0 -- -- 20
2020-08-29 18:00:00 22.5 24 Nordeste 44 Este 0 -- -- 21
2020-08-29 17:00:00 26.4 21 Norte 48 Noroeste 0 -- -- 13
2020-08-29 16:00:00 26.8 26 Noroeste 45 Noroeste 0 -- -- 15
2020-08-29 15:00:00 26.1 23 Noroeste 44 Noroeste 0 -- -- 15
2020-08-29 14:00:00 24.2 23 Noroeste 40 Noroeste 0 -- -- 13
2020-08-29 13:00:00 24.9 22 Noroeste 34 Noroeste 0 -- -- 13
2020-08-29 12:00:00 22.9 14 Noroeste 26 Noroeste 0 -- -- 19
2020-08-29 11:00:00 20.6 10 Noroeste 19 Noroeste 0 -- -- 27
2020-08-29 10:00:00 20.7 8 Sudoeste 14 Sur 0 -- -- 35
2020-08-29 09:00:00 18.9 5 Sur 9 Sur 0 -- -- 35
2020-08-29 08:00:00 17.8 4 Sur 9 Sudeste 0 -- -- 38
2020-08-29 07:00:00 18.3 7 Sudeste 12 Sudeste 0 -- -- 35
2020-08-29 06:00:00 17.2 2 Oeste 9 Norte 0 -- -- 41
2020-08-29 05:00:00 18.3 2 Nordeste 9 Noroeste 0 -- -- 35
2020-08-29 04:00:00 19 9 Nordeste 14 Nordeste 0 -- -- 24
2020-08-29 03:00:00 18.8 4 Nordeste 6 Nordeste 0 -- -- 38
2020-08-29 02:00:00 19.7 3 Nordeste 9 Este 0 -- -- 34
2020-08-29 01:00:00 20.9 3 Este 10 Este 0 -- -- 30
2020-08-29 00:00:00 21.1 5 Este 10 Este 0 -- -- 28
2020-08-28 23:00:00 21.6 0 Calma 27 Nordeste 0 -- -- 30
2020-08-28 22:00:00 22.3 19 Este 36 Nordeste 0 -- -- 28
2020-08-28 21:00:00 22.7 27 Nordeste 41 Este 0 -- -- 29
2020-08-28 20:00:00 24.5 22 Nordeste 33 Nordeste 0 -- -- 27
2020-08-28 19:00:00 27.9 18 Noroeste 39 Noroeste 0 -- -- 20
2020-08-28 18:00:00 28.9 24 Noroeste 37 Noroeste 0 -- -- 19
2020-08-28 17:00:00 29.1 20 Noroeste 40 Noroeste 0 -- -- 20
2020-08-28 16:00:00 29.8 25 Norte 45 Noroeste 0 -- -- 19
2020-08-28 15:00:00 28.8 27 Noroeste 45 Noroeste 0 -- -- 20
2020-08-28 14:00:00 28.2 22 Noroeste 40 Noroeste 0 -- -- 20
2020-08-28 13:00:00 28.4 22 Noroeste 40 Noroeste 0 -- -- 16
2020-08-28 12:00:00 26.3 22 Noroeste 35 Noroeste 0 -- -- 23
2020-08-28 11:00:00 25.2 18 Noroeste 29 Noroeste 0 -- -- 24
2020-08-28 10:00:00 23.7 11 Oeste 18 Norte 0 -- -- 21
2020-08-28 09:00:00 22.3 11 Norte 25 Norte 0 -- -- 22
2020-08-28 08:00:00 21.3 18 Norte 26 Norte 0 -- -- 24
2020-08-28 07:00:00 20.4 17 Nordeste 24 Norte 0 -- -- 27
2020-08-28 06:00:00 20.7 18 Nordeste 28 Nordeste 0 -- -- 25
2020-08-28 05:00:00 20.9 17 Nordeste 23 Nordeste 0 -- -- 23
2020-08-28 04:00:00 21.1 3 Nordeste 8 Nordeste 0 -- -- 32
2020-08-28 03:00:00 20.7 5 Norte 11 Noroeste 0 -- -- 33
2020-08-28 02:00:00 21.1 5 Nordeste 10 Nordeste 0 -- -- 33
2020-08-28 01:00:00 21.9 8 Norte 12 Nordeste 0 -- -- 32
2020-08-28 00:00:00 22 10 Norte 19 Norte 0 -- -- 35